Wout Babel

Recruteur - PSV
20 Févr 2028
Dimanche
Processus

Personnalité

Adaptabilité (2) Ambition (11) Controverse (3) Loyauté (5) Pression (6) Professionnalisme (5) Sportivité (20) Tempérament (16)

Profil

Style d'entraînement Démocratique
Diplôme Continental Pro
Détermination 8
Gestion des joueurs 10
Motivation 13
Discipline 10
Satisfaction professionnelle
100%
Fatigue
0%
Rôle Recruteur
Salaire 80.0K p/s
Contrat 14.03.2030

Performance

Comportement Bon
Efficacité de l'entraînement
39%
Développement des joueurs
40%
Prévention des blessures
35%
Mise en place tactique
60%

Événements récents

A évalué un joueur maintenant
A évalué un joueur maintenant
A participé à une réunion de recrutement maintenant
A évalué un joueur maintenant
A évalué un joueur maintenant
A évalué un joueur 7j
A évalué un joueur 7j
A évalué un joueur 7j

Suivi en cours

49
Joueur Club Statut Capacité Confiance Observé Dernière observation Dernier vote
Nico Williams Athletic Bilbao Actif 170 / 179 40% 2 19.02.2028 -
Ander Barrenetxea Deportivo La Coruña Actif 162 / 161 40% 1 19.02.2028 -
Giovanni Leoni Bradford City Actif 133 / 144 40% 1 18.02.2028 -
Trey Nyoni Rotherham United Actif 136 / 137 40% 1 18.02.2028 -
Thiago Almada AC Milan Actif 157 / 143 40% 2 17.02.2028 -
Ez Abde Girona Actif 165 / 156 40% 1 17.02.2028 -
Marc Bernal Real Sociedad Actif 143 / 158 40% 1 16.02.2028 -
Jaydee Canvot AJ Auxerre Actif 138 / 149 40% 1 16.02.2028 -
Josh King Chelsea Actif 152 / 153 40% 4 14.02.2028 -
Kauã Moraes Cruzeiro Actif 122 / 126 40% 1 14.02.2028 -
Félix Lemaréchal Club Brugge Actif 139 / 148 40% 1 14.02.2028 -
Geny Sporting CP Actif 160 / 142 40% 1 12.02.2028 -
Xavi Simons Tottenham Actif 164 / 168 40% 1 12.02.2028 -
Takefusa Kubo Real Sociedad Actif 171 / 150 40% 1 11.02.2028 -
Christos Mouzakitis Hull City Actif 142 / 143 40% 3 10.02.2028 -
Thierno Barry Norwich City Actif 152 / 136 40% 1 09.02.2028 -
Mohammed Kudus Tottenham Actif 153 / 155 40% 1 09.02.2028 -
Ryan McAidoo Gillingham Actif 115 / 126 40% 1 02.02.2028 -
Estêvão Millwall Actif 146 / 156 40% 1 02.02.2028 -
David Min Utrecht Actif 132 / 121 58% 1 17.01.2028 -
David van der Werff Groningen Actif 125 / 125 58% 1 01.01.2028 -
Reiss Nelson Aston Villa Actif 144 / 156 40% 1 31.12.2027 -
Jan Virgili Club Brugge Actif 143 / 147 40% 1 31.12.2027 -
Riley Owen Trento Actif 115 / 112 40% 3 09.08.2027 -
Izan Merino Málaga Actif 117 / 139 40% 1 09.08.2027 -
Milan Roganović Racing Genk Actif 102 / 121 40% 2 30.05.2027 -
Caleb Yirenkyi Coventry City Actif 147 / 134 40% 2 30.05.2027 -
Jan Bürger Gillingham Actif 99 / 114 40% 2 28.05.2027 -
Joel McGregor Swindon Town Actif 97 / 103 40% 2 25.05.2027 -
Pape Diong Westerlo Actif 120 / 121 40% 1 25.05.2027 -
Johan Manzambi Newcastle United Actif 134 / 150 40% 1 19.05.2027 -
Matías Gómez Granada Actif 114 / 114 40% 1 19.05.2027 -
José Pachuca Puebla Actif 92 / 114 40% 3 14.05.2027 -
Lucas Høgsberg RC Strasbourg Actif 126 / 143 40% 4 04.05.2027 -
Noah Nartey Olympique Lyonnais Actif 127 / 146 40% 1 29.04.2027 -
Yusi Alavés Actif 119 / 130 40% 1 28.04.2027 -
Cheveyo Tsawa Club Brugge Actif 106 / 139 40% 3 27.04.2027 -
Kazunari Kita Real Sociedad Actif 94 / 99 40% 2 22.04.2027 -
Christ Inao Oulaï Fiorentina Actif 131 / 138 40% 3 21.04.2027 -
Toni Tamarit Alverca Actif 109 / 130 40% 2 20.04.2027 -
Tiago Freitas Benfica Actif 115 / 118 40% 2 17.04.2027 -
David Ozoh Derby County Actif 129 / 138 40% 3 14.04.2027 -
Kevin Vazquez Cruz Azul Actif 142 / 129 40% 1 14.04.2027 -
Percy Jali Free State Stars Actif 79 / 104 40% 1 12.04.2027 -
James Dornelly Peterborough United Actif 96 / 99 40% 1 02.04.2027 -
Khalis Merah Toulouse FC Actif 129 / 135 40% 1 29.03.2027 -
Joaquin Seys Club Brugge Actif 122 / 137 40% 1 20.03.2027 -
Dylan Lawlor Cardiff City Actif 120 / 114 40% 1 16.03.2027 -
Patati AZ Actif 122 / 126 55% 1 02.01.2027 -